createdAt,value
2023-03-22T00:01:14.295Z,100.00
2023-03-22T00:16:15.786Z,100.00
2023-03-22T00:31:17.300Z,100.00
2023-03-22T00:46:20.163Z,100.00
2023-03-22T01:01:21.677Z,100.00
2023-03-22T01:16:23.245Z,100.00
2023-03-22T01:31:25.156Z,100.00
2023-03-22T01:46:26.798Z,100.00
2023-03-22T02:01:28.367Z,100.00
2023-03-22T02:16:30.824Z,100.00
2023-03-22T02:31:37.409Z,100.00
2023-03-22T02:46:39.103Z,100.00
2023-03-22T03:01:40.647Z,100.00
2023-03-22T03:16:46.642Z,100.00
2023-03-22T03:31:48.242Z,100.00
2023-03-22T03:46:49.707Z,100.00
2023-03-22T04:01:52.565Z,100.00
2023-03-22T04:17:01.455Z,100.00
2023-03-22T04:32:04.490Z,100.00
2023-03-22T04:47:12.657Z,100.00
2023-03-22T05:02:14.252Z,100.00
2023-03-22T05:17:18.041Z,100.00
2023-03-22T05:32:19.594Z,100.00
2023-03-22T05:47:22.595Z,100.00
2023-03-22T06:02:33.183Z,100.00
2023-03-22T06:17:35.152Z,100.00
2023-03-22T06:32:37.026Z,100.00
2023-03-22T06:47:39.262Z,100.00
2023-03-22T07:02:59.044Z,84.63
2023-03-22T07:18:20.732Z,66.38
2023-03-22T07:33:22.276Z,59.71
2023-03-22T07:48:24.250Z,57.71
2023-03-22T08:04:03.981Z,54.08
2023-03-22T08:19:28.202Z,51.56
2023-03-22T08:34:29.786Z,52.65
2023-03-22T08:49:31.584Z,48.61
2023-03-22T09:04:41.079Z,46.88
2023-03-22T09:19:43.644Z,46.21
2023-03-22T09:34:45.631Z,46.30
2023-03-22T09:49:53.632Z,47.91
2023-03-22T10:04:55.560Z,44.46
2023-03-22T10:19:56.965Z,44.72
2023-03-22T10:34:58.409Z,43.36
2023-03-22T10:49:59.895Z,44.67
2023-03-22T11:05:01.500Z,44.91
2023-03-22T11:20:07.838Z,42.69
2023-03-22T11:35:09.389Z,41.63
2023-03-22T11:50:10.886Z,42.94
2023-03-22T12:05:13.509Z,45.66
2023-03-22T12:20:14.973Z,43.88
2023-03-22T12:35:18.099Z,44.76
2023-03-22T12:50:19.871Z,44.82
2023-03-22T13:05:21.279Z,45.54
2023-03-22T13:20:25.659Z,46.29
2023-03-22T13:35:28.376Z,52.32
2023-03-22T13:50:30.021Z,51.13
2023-03-22T14:05:31.437Z,51.99
2023-03-22T14:20:32.854Z,50.00
